Time;durP1;ratioP1;P1;durP2;ratioP2;P2;SDS_P1;SDS_P2;PMS_P1;PMS_P2;Temp;Humidity;BMP_temperature;BMP_pressure;BME280_temperature;BME280_humidity;BME280_pressure;Samples;Min_cycle;Max_cycle;Signal;HPM_P1;HPM_P2
2023/01/20 00:01:22;;;;;;;8.07;7.07;;;-0.10;99.90;;;;;;5021748;27;87913;-34
2023/01/20 00:03:49;;;;;;;11.80;9.23;;;-0.10;99.90;;;;;;5020845;27;88954;-31
2023/01/20 00:06:15;;;;;;;10.75;7.22;;;-0.10;99.90;;;;;;5029838;27;90600;-32
2023/01/20 00:08:41;;;;;;;13.50;8.40;;;-0.10;99.90;;;;;;5040906;27;89947;-33
2023/01/20 00:11:09;;;;;;;12.80;8.75;;;-0.10;99.90;;;;;;5040463;27;89092;-31
2023/01/20 00:13:36;;;;;;;9.90;8.93;;;-0.10;99.90;;;;;;5039883;27;88072;-34
2023/01/20 00:16:03;;;;;;;10.98;8.32;;;-0.10;99.90;;;;;;5037303;27;90084;-34
2023/01/20 00:18:28;;;;;;;15.65;9.52;;;-0.10;99.90;;;;;;5027635;27;89788;-31
2023/01/20 00:20:54;;;;;;;14.35;10.07;;;-0.10;99.90;;;;;;5028078;27;89257;-32
2023/01/20 00:23:20;;;;;;;12.98;8.85;;;-0.10;99.90;;;;;;5025155;27;88281;-31
2023/01/20 00:25:45;;;;;;;10.75;9.00;;;0.00;99.90;;;;;;5020193;27;90803;-33
2023/01/20 00:28:11;;;;;;;10.75;9.65;;;0.00;99.90;;;;;;5019695;27;90004;-31
2023/01/20 00:30:37;;;;;;;10.48;9.05;;;0.00;99.90;;;;;;5020832;27;88338;-31
2023/01/20 00:33:02;;;;;;;10.63;8.38;;;0.10;99.90;;;;;;5021085;27;88030;-32
2023/01/20 00:35:28;;;;;;;10.02;8.98;;;0.20;99.90;;;;;;5020704;27;89644;-33
2023/01/20 00:37:53;;;;;;;12.15;9.30;;;0.20;99.90;;;;;;5019463;27;89704;-33
2023/01/20 00:40:19;;;;;;;10.57;8.60;;;0.30;99.90;;;;;;5021107;27;87678;-32
2023/01/20 00:42:44;;;;;;;15.70;10.10;;;0.40;99.90;;;;;;5021190;27;88112;-31
2023/01/20 00:45:10;;;;;;;13.70;10.00;;;0.40;99.90;;;;;;5018964;28;88359;-31
2023/01/20 00:47:36;;;;;;;11.73;10.50;;;0.40;99.90;;;;;;5018623;27;91114;-30
2023/01/20 00:50:02;;;;;;;10.63;8.07;;;0.50;99.90;;;;;;5019572;27;88449;-32
2023/01/20 00:52:27;;;;;;;12.13;9.20;;;0.50;99.90;;;;;;5020226;27;89315;-31
2023/01/20 00:54:53;;;;;;;8.95;8.02;;;0.50;99.90;;;;;;5010366;27;90526;-31
2023/01/20 00:57:18;;;;;;;9.35;8.40;;;0.50;99.90;;;;;;5033081;27;89754;-31
2023/01/20 00:59:44;;;;;;;11.73;7.47;;;0.50;99.90;;;;;;5020779;27;88665;-32
2023/01/20 01:02:09;;;;;;;9.55;8.35;;;0.50;99.90;;;;;;5032710;27;88773;-31
2023/01/20 01:04:35;;;;;;;9.45;7.97;;;0.50;99.90;;;;;;5029921;27;91476;-31
2023/01/20 01:07:01;;;;;;;14.05;10.35;;;0.50;99.90;;;;;;5035279;27;89878;-30
2023/01/20 01:09:26;;;;;;;10.15;8.02;;;0.60;99.90;;;;;;5039253;27;88604;-34
2023/01/20 01:11:52;;;;;;;10.05;8.43;;;0.60;99.90;;;;;;5033240;27;87635;-33
2023/01/20 01:14:17;;;;;;;11.75;9.13;;;0.70;99.90;;;;;;5009337;27;89998;-31
2023/01/20 01:16:43;;;;;;;10.90;8.63;;;0.60;99.90;;;;;;5031811;27;90016;-32
2023/01/20 01:19:09;;;;;;;11.07;9.05;;;0.70;99.90;;;;;;5006768;27;88314;-30
2023/01/20 01:21:35;;;;;;;13.10;9.07;;;0.70;99.90;;;;;;5020855;27;88523;-31
2023/01/20 01:24:00;;;;;;;11.18;9.40;;;0.70;99.90;;;;;;5019601;27;90281;-31
2023/01/20 01:26:26;;;;;;;9.27;8.23;;;0.70;99.90;;;;;;5021061;27;90127;-31
2023/01/20 01:28:52;;;;;;;11.48;9.65;;;0.70;99.90;;;;;;5019737;27;87809;-32
2023/01/20 01:31:20;;;;;;;13.02;10.25;;;0.70;99.90;;;;;;5022412;27;89515;-34
2023/01/20 01:33:46;;;;;;;10.60;8.80;;;0.80;99.90;;;;;;5023201;27;89807;-34
2023/01/20 01:36:14;;;;;;;14.43;11.23;;;0.70;99.90;;;;;;5024151;27;89511;-31
2023/01/20 01:38:40;;;;;;;10.68;9.57;;;0.70;99.90;;;;;;5022739;27;90012;-30
2023/01/20 01:41:05;;;;;;;14.77;10.23;;;0.80;99.90;;;;;;5024491;27;89661;-30
2023/01/20 01:43:33;;;;;;;13.23;10.00;;;0.70;99.90;;;;;;5022939;27;88448;-34
2023/01/20 01:45:59;;;;;;;11.10;8.88;;;0.80;99.90;;;;;;5021543;27;89986;-30
2023/01/20 01:48:44;;;;;;;13.70;11.50;;;0.80;99.90;;;;;;5024188;27;89332;-31
2023/01/20 01:51:20;;;;;;;21.13;11.73;;;0.80;99.90;;;;;;5026613;27;88549;-31
2023/01/20 01:53:52;;;;;;;13.73;11.55;;;0.80;99.90;;;;;;5040907;27;91022;-34
2023/01/20 01:56:20;;;;;;;13.60;9.73;;;0.90;99.90;;;;;;5009235;27;89953;-33
2023/01/20 01:58:48;;;;;;;12.87;10.67;;;0.90;99.90;;;;;;5035786;27;87583;-32
2023/01/20 02:01:14;;;;;;;12.60;11.23;;;0.90;99.90;;;;;;5041650;27;89347;-34
2023/01/20 02:04:02;;;;;;;11.77;9.43;;;0.80;99.90;;;;;;5040577;27;89889;-31
2023/01/20 02:06:31;;;;;;;14.02;10.38;;;0.80;99.90;;;;;;5042679;27;89462;-30
2023/01/20 02:09:00;;;;;;;15.98;12.43;;;0.80;99.90;;;;;;5041369;27;88537;-31
2023/01/20 02:11:26;;;;;;;18.02;11.25;;;0.80;99.90;;;;;;5042304;27;88445;-32
2023/01/20 02:13:52;;;;;;;13.73;11.00;;;0.80;99.90;;;;;;5040576;27;90393;-31
2023/01/20 02:16:53;;;;;;;13.27;11.60;;;0.90;99.90;;;;;;5038976;27;89483;-33
2023/01/20 02:19:34;;;;;;;13.68;10.63;;;0.80;99.90;;;;;;4958389;28;87751;-34
2023/01/20 02:22:41;;;;;;;11.40;9.38;;;0.80;99.90;;;;;;5014778;27;89411;-31
2023/01/20 02:25:21;;;;;;;10.95;8.65;;;0.80;99.90;;;;;;5022415;27;90347;-32
2023/01/20 02:28:05;;;;;;;15.10;10.23;;;0.80;99.90;;;;;;5010867;27;91256;-31
2023/01/20 02:30:57;;;;;;;12.02;8.80;;;0.70;99.90;;;;;;5008720;27;89061;-32
2023/01/20 02:33:35;;;;;;;15.05;9.50;;;0.80;99.90;;;;;;5022633;27;89430;-30
2023/01/20 02:36:12;;;;;;;12.95;9.48;;;0.70;99.90;;;;;;5022131;27;90097;-32
2023/01/20 02:38:50;;;;;;;12.02;10.02;;;0.70;99.90;;;;;;5010169;27;88825;-30
2023/01/20 02:41:34;;;;;;;11.82;8.48;;;0.70;99.90;;;;;;5022630;27;88961;-30
2023/01/20 02:44:38;;;;;;;10.73;9.55;;;0.60;99.90;;;;;;5021707;27;88315;-32
2023/01/20 02:47:28;;;;;;;12.93;10.75;;;0.60;99.90;;;;;;5013470;27;90343;-31
2023/01/20 02:49:54;;;;;;;11.70;8.77;;;0.50;99.90;;;;;;5008895;27;89608;-31
2023/01/20 02:52:30;;;;;;;10.90;9.82;;;0.50;99.90;;;;;;5035784;27;88194;-31
2023/01/20 02:55:00;;;;;;;11.77;9.88;;;0.60;99.90;;;;;;5042137;27;87882;-31
2023/01/20 02:57:34;;;;;;;11.30;10.13;;;0.50;99.90;;;;;;5027250;27;90320;-33
2023/01/20 03:00:06;;;;;;;14.52;11.35;;;0.50;99.90;;;;;;5039911;27;90062;-31
2023/01/20 03:02:34;;;;;;;15.20;13.02;;;0.50;99.90;;;;;;5026229;27;89732;-33
2023/01/20 03:05:06;;;;;;;13.85;11.32;;;0.50;99.90;;;;;;5039234;27;89485;-31
2023/01/20 03:07:34;;;;;;;14.43;12.43;;;0.60;99.90;;;;;;5030795;27;91769;-32
2023/01/20 03:10:04;;;;;;;12.80;10.55;;;0.50;99.90;;;;;;5031422;27;89662;-33
2023/01/20 03:12:54;;;;;;;13.63;12.23;;;0.50;99.90;;;;;;5038674;27;88850;-33
2023/01/20 03:15:24;;;;;;;11.07;9.38;;;0.50;99.90;;;;;;5037502;27;89390;-32
2023/01/20 03:17:50;;;;;;;14.40;12.50;;;0.60;99.90;;;;;;5041586;27;90194;-32
2023/01/20 03:20:16;;;;;;;16.08;11.02;;;0.60;99.90;;;;;;5037766;27;89881;-31
2023/01/20 03:22:42;;;;;;;16.95;13.13;;;0.50;99.90;;;;;;5027884;27;87506;-31
2023/01/20 03:25:10;;;;;;;16.50;12.70;;;0.50;99.90;;;;;;5020846;27;88543;-31
2023/01/20 03:27:35;;;;;;;18.80;12.48;;;0.50;99.90;;;;;;5026145;27;89808;-33
2023/01/20 03:30:02;;;;;;;14.93;12.68;;;0.50;99.90;;;;;;5022753;27;89746;-31
2023/01/20 03:32:28;;;;;;;18.23;12.63;;;0.60;99.90;;;;;;5020683;27;89784;-32
2023/01/20 03:34:55;;;;;;;17.20;13.48;;;0.60;99.90;;;;;;5020227;27;90000;-33
2023/01/20 03:37:22;;;;;;;16.90;13.32;;;0.60;99.90;;;;;;5021430;27;88402;-31
2023/01/20 03:39:48;;;;;;;15.27;12.13;;;0.60;99.90;;;;;;5020346;27;89531;-30
2023/01/20 03:42:31;;;;;;;14.38;12.25;;;0.50;99.90;;;;;;5019821;27;89618;-32
2023/01/20 03:45:05;;;;;;;18.73;14.25;;;0.50;99.90;;;;;;5019865;27;89626;-30
2023/01/20 03:47:58;;;;;;;16.83;13.38;;;0.50;99.90;;;;;;5020111;27;89393;-30
2023/01/20 03:50:47;;;;;;;14.95;12.00;;;0.50;99.90;;;;;;5020806;27;89859;-33
2023/01/20 03:53:13;;;;;;;17.63;13.50;;;0.50;99.90;;;;;;5010343;27;89431;-29
2023/01/20 03:56:08;;;;;;;17.10;12.15;;;0.50;99.90;;;;;;5025003;27;89222;-30
2023/01/20 03:58:37;;;;;;;13.77;12.07;;;0.50;99.90;;;;;;5033017;27;90475;-31
2023/01/20 04:01:06;;;;;;;16.10;11.75;;;0.50;99.90;;;;;;5027046;27;89930;-32
2023/01/20 04:03:37;;;;;;;19.02;14.68;;;0.50;99.90;;;;;;5033010;27;89311;-32
2023/01/20 04:06:05;;;;;;;12.02;9.95;;;0.50;99.90;;;;;;5028203;27;89450;-34
2023/01/20 04:08:35;;;;;;;14.10;9.32;;;0.60;99.90;;;;;;5032294;27;91469;-31
2023/01/20 04:11:04;;;;;;;14.95;12.15;;;0.60;99.90;;;;;;5030217;27;89690;-33
2023/01/20 04:13:30;;;;;;;19.63;12.98;;;0.60;99.90;;;;;;5030013;27;89329;-33
2023/01/20 04:15:57;;;;;;;18.45;13.45;;;0.60;99.90;;;;;;5029971;27;87637;-33
2023/01/20 04:18:23;;;;;;;18.95;13.55;;;0.60;99.90;;;;;;5029453;27;89656;-31
2023/01/20 04:21:01;;;;;;;22.52;13.88;;;0.60;99.90;;;;;;5030265;27;89800;-31
2023/01/20 04:23:39;;;;;;;16.60;13.37;;;0.60;99.90;;;;;;5028250;27;89103;-31
2023/01/20 04:26:04;;;;;;;20.55;13.73;;;0.60;99.90;;;;;;5020633;27;89893;-32
2023/01/20 04:28:31;;;;;;;17.25;13.18;;;0.50;99.90;;;;;;5027271;27;90236;-34
2023/01/20 04:30:56;;;;;;;15.75;11.68;;;0.50;99.90;;;;;;5020945;27;89633;-33
2023/01/20 04:33:22;;;;;;;15.80;11.40;;;0.50;99.90;;;;;;5019771;27;88846;-33
2023/01/20 04:35:48;;;;;;;19.42;15.15;;;0.50;99.90;;;;;;5019237;27;90307;-31
2023/01/20 04:38:13;;;;;;;18.83;11.63;;;0.60;99.90;;;;;;5019154;27;91316;-31
2023/01/20 04:40:39;;;;;;;15.98;12.15;;;0.50;99.90;;;;;;5019154;27;90165;-30
2023/01/20 04:43:04;;;;;;;15.27;10.15;;;0.50;99.90;;;;;;5019719;27;88729;-31
2023/01/20 04:45:30;;;;;;;15.63;11.75;;;0.50;99.90;;;;;;5019716;27;88524;-32
2023/01/20 04:47:56;;;;;;;11.90;10.73;;;0.50;99.90;;;;;;5025550;27;90245;-32
2023/01/20 04:50:21;;;;;;;15.52;11.73;;;0.60;99.90;;;;;;5019768;27;89562;-33
2023/01/20 04:52:47;;;;;;;12.45;10.85;;;0.50;99.90;;;;;;5018589;27;87654;-31
2023/01/20 04:55:13;;;;;;;13.55;10.95;;;0.60;99.90;;;;;;5018975;27;88380;-31
2023/01/20 04:57:38;;;;;;;17.95;13.35;;;0.50;99.90;;;;;;5018942;27;90544;-32
2023/01/20 05:00:06;;;;;;;16.80;11.95;;;0.50;99.90;;;;;;5019569;27;89641;-30
2023/01/20 05:02:32;;;;;;;14.30;10.60;;;0.50;99.90;;;;;;5019847;27;89241;-32
2023/01/20 05:04:57;;;;;;;17.88;12.90;;;0.50;99.90;;;;;;5031882;27;88574;-31
2023/01/20 05:07:23;;;;;;;16.13;12.25;;;0.50;99.90;;;;;;5042067;27;89921;-31
2023/01/20 05:09:48;;;;;;;12.70;11.48;;;0.50;99.90;;;;;;5042582;27;89823;-30
2023/01/20 05:12:14;;;;;;;16.98;12.73;;;0.50;99.90;;;;;;5029323;27;89370;-32
2023/01/20 05:14:40;;;;;;;17.45;13.60;;;0.60;99.90;;;;;;5030653;27;87906;-30
2023/01/20 05:17:05;;;;;;;14.75;11.20;;;0.60;99.90;;;;;;5027651;27;90250;-33
2023/01/20 05:19:31;;;;;;;14.93;11.57;;;0.50;99.90;;;;;;5042080;27;89680;-32
2023/01/20 05:21:58;;;;;;;15.98;12.00;;;0.60;99.90;;;;;;5028041;27;89230;-32
2023/01/20 05:24:24;;;;;;;16.40;12.38;;;0.60;99.90;;;;;;5043298;27;87597;-32
2023/01/20 05:26:49;;;;;;;13.18;11.68;;;0.60;99.90;;;;;;5041527;27;90321;-34
2023/01/20 05:29:15;;;;;;;17.10;12.88;;;0.60;99.90;;;;;;5037563;27;89575;-31
2023/01/20 05:31:42;;;;;;;16.33;13.73;;;0.60;99.90;;;;;;5035445;27;89293;-32
2023/01/20 05:34:08;;;;;;;17.48;12.15;;;0.60;99.90;;;;;;5023235;27;88228;-32
2023/01/20 05:36:34;;;;;;;16.23;11.57;;;0.70;99.90;;;;;;5036622;27;90223;-32
2023/01/20 05:39:00;;;;;;;16.20;12.27;;;0.60;99.90;;;;;;5031203;27;89725;-32
2023/01/20 05:41:25;;;;;;;16.02;12.00;;;0.70;99.90;;;;;;5036294;27;89018;-31
2023/01/20 05:43:54;;;;;;;18.73;12.93;;;0.70;99.90;;;;;;5031422;27;88007;-31
2023/01/20 05:46:20;;;;;;;20.65;12.82;;;0.70;99.90;;;;;;5021864;27;90296;-31
2023/01/20 05:48:46;;;;;;;17.80;13.35;;;0.60;99.90;;;;;;5023895;27;89580;-32
2023/01/20 05:51:11;;;;;;;21.17;14.90;;;0.70;99.90;;;;;;5035617;27;88899;-31
2023/01/20 05:53:37;;;;;;;18.80;13.55;;;0.70;99.90;;;;;;5021606;27;89544;-30
2023/01/20 05:56:04;;;;;;;20.45;14.43;;;0.80;99.90;;;;;;5021864;27;89195;-31
2023/01/20 05:58:30;;;;;;;17.88;14.95;;;0.80;99.90;;;;;;5033951;27;90422;-33
2023/01/20 06:01:07;;;;;;;22.70;15.23;;;0.70;99.90;;;;;;5028194;27;87680;-30
2023/01/20 06:03:33;;;;;;;22.92;14.00;;;0.70;99.90;;;;;;5026398;27;89518;-34
2023/01/20 06:06:08;;;;;;;22.67;16.27;;;0.70;99.90;;;;;;5021492;27;91841;-31
2023/01/20 06:08:34;;;;;;;20.33;14.80;;;0.80;99.90;;;;;;5020421;27;89218;-33
2023/01/20 06:11:00;;;;;;;21.35;15.07;;;0.80;99.90;;;;;;5021429;27;89740;-30
2023/01/20 06:13:25;;;;;;;34.30;17.70;;;0.70;99.90;;;;;;5037387;27;90334;-31
2023/01/20 06:15:52;;;;;;;21.88;16.50;;;0.80;99.90;;;;;;5021058;27;90473;-31
2023/01/20 06:18:18;;;;;;;19.90;16.02;;;0.70;99.90;;;;;;5019001;27;90790;-33
2023/01/20 06:20:44;;;;;;;26.35;17.85;;;0.70;99.90;;;;;;5020540;27;89988;-30
2023/01/20 06:23:10;;;;;;;20.95;16.17;;;0.70;99.90;;;;;;5020763;27;89736;-33
2023/01/20 06:25:35;;;;;;;26.40;19.23;;;0.70;99.90;;;;;;5020703;27;90434;-36
2023/01/20 06:28:01;;;;;;;22.23;17.10;;;0.70;99.90;;;;;;5023132;27;90404;-32
2023/01/20 06:30:27;;;;;;;26.65;16.60;;;0.70;99.90;;;;;;5025429;27;91173;-31
2023/01/20 06:32:53;;;;;;;22.65;15.82;;;0.70;99.90;;;;;;5020417;27;89494;-32
2023/01/20 06:35:20;;;;;;;26.55;20.55;;;0.70;99.90;;;;;;5021251;27;90169;-30
2023/01/20 06:37:45;;;;;;;29.67;17.60;;;0.70;99.90;;;;;;5013014;27;89650;-30
2023/01/20 06:40:13;;;;;;;30.75;18.45;;;0.80;99.90;;;;;;5015630;27;89510;-31
2023/01/20 06:42:39;;;;;;;32.45;20.15;;;0.80;99.90;;;;;;5020621;27;89032;-32
2023/01/20 06:45:05;;;;;;;27.52;19.02;;;0.80;99.90;;;;;;5019304;27;91157;-31
2023/01/20 06:47:31;;;;;;;28.33;19.88;;;0.70;99.90;;;;;;5020237;27;89574;-33
2023/01/20 06:49:56;;;;;;;24.60;19.35;;;0.70;99.90;;;;;;5020487;27;89835;-31
2023/01/20 06:52:22;;;;;;;27.83;22.40;;;0.70;99.90;;;;;;5019619;27;89164;-32
2023/01/20 06:54:47;;;;;;;29.05;20.33;;;0.80;99.90;;;;;;5019584;27;90281;-31
2023/01/20 06:57:13;;;;;;;28.90;21.98;;;0.70;99.90;;;;;;5032333;27;89627;-30
2023/01/20 06:59:39;;;;;;;32.20;20.05;;;0.70;99.90;;;;;;5020335;27;89519;-30
2023/01/20 07:02:05;;;;;;;32.85;22.52;;;0.80;99.90;;;;;;5035412;27;89976;-31
2023/01/20 07:04:30;;;;;;;25.40;19.27;;;0.80;99.90;;;;;;5039829;27;89931;-32
2023/01/20 07:06:56;;;;;;;34.72;23.63;;;0.80;99.90;;;;;;5038427;27;90748;-32
2023/01/20 07:09:22;;;;;;;33.35;22.27;;;0.80;99.90;;;;;;5039184;27;90300;-30
2023/01/20 07:11:47;;;;;;;34.55;25.65;;;0.80;99.90;;;;;;5039168;27;89211;-31
2023/01/20 07:14:13;;;;;;;36.88;25.45;;;0.80;99.90;;;;;;5038995;27;90211;-33
2023/01/20 07:16:38;;;;;;;36.35;24.13;;;0.80;99.90;;;;;;5025030;27;89284;-31
2023/01/20 07:19:04;;;;;;;31.20;23.80;;;0.80;99.90;;;;;;5034739;27;89733;-32
2023/01/20 07:21:30;;;;;;;35.45;24.52;;;0.80;99.90;;;;;;5034815;27;88954;-31
2023/01/20 07:24:00;;;;;;;38.97;26.33;;;0.80;99.90;;;;;;5034988;27;90039;-30
2023/01/20 07:26:25;;;;;;;29.23;22.83;;;0.90;99.90;;;;;;5035342;27;89468;-31
2023/01/20 07:28:51;;;;;;;31.88;24.27;;;0.90;99.90;;;;;;5037019;27;90442;-32
2023/01/20 07:31:19;;;;;;;36.45;25.10;;;0.90;99.90;;;;;;5025336;27;90600;-33
2023/01/20 07:33:45;;;;;;;35.08;24.50;;;0.90;99.90;;;;;;5034957;27;90497;-30
2023/01/20 07:36:13;;;;;;;35.45;24.83;;;0.90;99.90;;;;;;5036442;27;90906;-33
2023/01/20 07:38:39;;;;;;;34.67;24.90;;;0.90;99.90;;;;;;5033903;27;89809;-29
2023/01/20 07:41:09;;;;;;;37.50;24.40;;;1.00;99.90;;;;;;5026331;27;89379;-30
2023/01/20 07:43:35;;;;;;;34.88;25.92;;;0.90;99.90;;;;;;5032312;27;90853;-32
2023/01/20 07:46:02;;;;;;;37.75;27.05;;;1.00;99.90;;;;;;5035430;27;89723;-31
2023/01/20 07:48:30;;;;;;;34.00;23.50;;;0.90;99.90;;;;;;5033896;27;89850;-32
2023/01/20 07:51:05;;;;;;;33.72;23.30;;;0.90;99.90;;;;;;5034620;27;88651;-31
2023/01/20 07:53:33;;;;;;;29.55;22.38;;;0.90;99.90;;;;;;5024972;27;91733;-31
2023/01/20 07:56:10;;;;;;;33.65;22.50;;;0.90;99.90;;;;;;5020687;27;92082;-31
2023/01/20 07:58:36;;;;;;;38.28;26.45;;;0.90;99.90;;;;;;5023999;27;90507;-34
2023/01/20 08:01:10;;;;;;;34.47;23.80;;;1.00;99.90;;;;;;5026357;27;89563;-31
2023/01/20 08:03:36;;;;;;;37.13;25.58;;;1.00;99.90;;;;;;5034388;27;90567;-33
2023/01/20 08:06:07;;;;;;;38.60;26.77;;;1.00;99.90;;;;;;5038534;27;89679;-30
2023/01/20 08:08:33;;;;;;;37.40;24.90;;;1.00;99.90;;;;;;5038879;27;89788;-33
2023/01/20 08:11:00;;;;;;;35.72;21.88;;;1.00;99.90;;;;;;5031924;27;90171;-32
2023/01/20 08:13:26;;;;;;;36.97;24.73;;;1.00;99.90;;;;;;5030669;27;89712;-31
2023/01/20 08:15:52;;;;;;;36.20;25.75;;;1.00;99.90;;;;;;5036209;27;90120;-32
2023/01/20 08:18:17;;;;;;;35.97;24.90;;;1.00;99.90;;;;;;5039128;27;90486;-34
2023/01/20 08:20:43;;;;;;;38.42;23.80;;;1.00;99.90;;;;;;5017345;27;90409;-31
2023/01/20 08:23:08;;;;;;;30.63;22.85;;;1.10;99.90;;;;;;5019039;27;90379;-32
2023/01/20 08:25:34;;;;;;;34.50;24.40;;;1.10;99.90;;;;;;5017809;27;89670;-33
2023/01/20 08:28:00;;;;;;;34.75;25.77;;;1.10;99.90;;;;;;5030487;27;89107;-32
2023/01/20 08:30:25;;;;;;;40.25;25.23;;;1.10;99.90;;;;;;5021234;27;89031;-33
2023/01/20 08:32:51;;;;;;;43.92;26.40;;;1.10;99.90;;;;;;5016517;27;90320;-32
2023/01/20 08:35:17;;;;;;;39.88;26.77;;;1.10;99.90;;;;;;5016398;27;89872;-31
2023/01/20 08:37:42;;;;;;;41.17;27.30;;;1.10;99.90;;;;;;5015952;27;89320;-33
2023/01/20 08:40:09;;;;;;;29.30;23.98;;;1.20;99.90;;;;;;5017161;27;88637;-33
2023/01/20 08:42:36;;;;;;;38.83;24.52;;;1.20;99.90;;;;;;5016918;27;91479;-31
2023/01/20 08:45:04;;;;;;;34.25;22.85;;;1.10;99.90;;;;;;5016101;27;90271;-31
2023/01/20 08:47:29;;;;;;;28.80;21.13;;;1.10;99.90;;;;;;5016569;27;89985;-32
2023/01/20 08:49:55;;;;;;;29.30;21.15;;;1.20;99.90;;;;;;5024723;27;90071;-30
2023/01/20 08:52:21;;;;;;;32.17;21.92;;;1.10;99.90;;;;;;5021424;27;90359;-31
2023/01/20 08:54:49;;;;;;;33.58;20.92;;;1.10;99.90;;;;;;5016201;27;90195;-33
2023/01/20 08:57:15;;;;;;;;;;;1.10;99.90;;;;;;5017180;27;89683;-31
2023/01/20 08:59:41;;;;;;;29.83;19.35;;;1.10;99.90;;;;;;5017784;27;88176;-29
2023/01/20 09:02:08;;;;;;;34.30;21.30;;;1.20;99.90;;;;;;5015898;27;90377;-34
2023/01/20 09:04:36;;;;;;;33.50;22.50;;;1.20;99.90;;;;;;5016105;27;89607;-32
2023/01/20 09:07:01;;;;;;;31.77;23.48;;;1.20;99.90;;;;;;5016304;27;89807;-32
2023/01/20 09:09:27;;;;;;;39.08;24.08;;;1.20;99.90;;;;;;5015451;27;89168;-33
2023/01/20 09:11:53;;;;;;;32.97;25.35;;;1.20;99.90;;;;;;5028555;27;91612;-31
2023/01/20 09:14:20;;;;;;;34.40;24.90;;;1.20;99.90;;;;;;5015834;27;90194;-33
2023/01/20 09:16:47;;;;;;;35.03;24.17;;;1.20;99.90;;;;;;5015957;27;89681;-32
2023/01/20 09:19:13;;;;;;;38.03;26.08;;;1.20;99.90;;;;;;5016798;27;90488;-31
2023/01/20 09:21:38;;;;;;;34.28;24.92;;;1.10;99.90;;;;;;5015608;27;89949;-32
2023/01/20 09:24:05;;;;;;;30.55;23.42;;;1.10;99.90;;;;;;5016366;27;90506;-31
2023/01/20 09:26:37;;;;;;;40.40;25.80;;;1.20;99.90;;;;;;5016112;27;89949;-32
2023/01/20 09:29:12;;;;;;;32.95;23.40;;;1.20;99.90;;;;;;5002658;27;88521;-30
2023/01/20 09:31:42;;;;;;;35.95;22.88;;;1.10;99.90;;;;;;5015800;27;90065;-32
2023/01/20 09:34:09;;;;;;;32.20;22.20;;;1.20;99.90;;;;;;5019067;27;90094;-31
2023/01/20 09:36:35;;;;;;;39.25;26.20;;;1.20;99.90;;;;;;5018887;27;91004;-34
2023/01/20 09:44:44;;;;;;;36.00;24.45;;;1.10;99.90;;;;;;5049546;22;89402;-34
2023/01/20 09:47:20;;;;;;;40.95;24.85;;;1.10;99.90;;;;;;4986079;28;89593;-32
2023/01/20 09:53:15;;;;;;;36.92;23.48;;;1.20;99.90;;;;;;4966323;28;89182;-32
2023/01/20 09:55:52;;;;;;;37.40;25.58;;;1.20;99.90;;;;;;4977990;28;89229;-32
2023/01/20 09:58:36;;;;;;;41.25;26.20;;;1.20;99.90;;;;;;4979065;28;89165;-30
2023/01/20 10:01:23;;;;;;;35.47;26.48;;;1.20;99.90;;;;;;4978269;28;90874;-34
2023/01/20 10:03:57;;;;;;;37.05;27.15;;;1.20;99.90;;;;;;4978827;28;88680;-30
2023/01/20 10:06:26;;;;;;;43.25;28.23;;;1.20;99.90;;;;;;4981082;28;89964;-31
2023/01/20 10:09:28;;;;;;;47.58;29.05;;;1.20;99.90;;;;;;4977285;28;89733;-32
2023/01/20 10:12:23;;;;;;;34.97;24.35;;;1.30;99.90;;;;;;4964061;28;87737;-32
2023/01/20 10:15:00;;;;;;;47.17;28.00;;;1.30;99.90;;;;;;4977967;28;89974;-33
2023/01/20 10:17:37;;;;;;;38.38;24.63;;;1.30;99.90;;;;;;4967374;28;89867;-31
2023/01/20 10:20:11;;;;;;;43.78;26.90;;;1.20;99.90;;;;;;4978391;28;89762;-31
2023/01/20 10:22:44;;;;;;;41.47;31.23;;;1.30;99.90;;;;;;4977577;28;88607;-33
2023/01/20 10:25:19;;;;;;;41.65;27.45;;;1.30;99.90;;;;;;4978623;28;90648;-31
2023/01/20 10:27:51;;;;;;;41.58;27.40;;;1.30;99.90;;;;;;4976370;28;90668;-33
2023/01/20 10:30:22;;;;;;;46.85;30.85;;;1.30;99.90;;;;;;4991796;28;91828;-30
2023/01/20 10:33:12;;;;;;;47.35;30.95;;;1.30;99.90;;;;;;4966471;28;89459;-31
2023/01/20 10:35:44;;;;;;;44.60;28.40;;;1.30;99.90;;;;;;4977408;28;90446;-33
2023/01/20 10:38:27;;;;;;;43.67;30.08;;;1.30;99.90;;;;;;4978094;28;89193;-31
2023/01/20 10:41:01;;;;;;;48.53;28.75;;;1.40;99.90;;;;;;4966249;28;89481;-30
2023/01/20 10:43:27;;;;;;;47.65;31.50;;;1.40;99.90;;;;;;4960760;28;88904;-31
2023/01/20 10:46:16;;;;;;;47.30;30.13;;;1.50;99.90;;;;;;4978067;28;90276;-31
2023/01/20 10:49:17;;;;;;;46.30;27.45;;;1.50;99.90;;;;;;4988886;28;89317;-32
2023/01/20 10:51:54;;;;;;;41.17;26.80;;;1.50;99.90;;;;;;4967019;28;89629;-33
2023/01/20 10:55:01;;;;;;;43.70;26.38;;;1.50;99.90;;;;;;4977722;28;88031;-30
2023/01/20 10:57:27;;;;;;;49.20;29.27;;;1.50;99.90;;;;;;4956663;28;90523;-32
2023/01/20 10:59:57;;;;;;;50.20;32.05;;;1.50;99.90;;;;;;4977437;28;90553;-31
2023/01/20 11:02:27;;;;;;;50.22;29.95;;;1.50;99.90;;;;;;4977719;28;89408;-32
2023/01/20 11:05:19;;;;;;;46.97;29.83;;;1.50;99.90;;;;;;4980808;28;88803;-31
2023/01/20 11:07:46;;;;;;;48.38;30.40;;;1.50;99.90;;;;;;4963474;28;90202;-34
2023/01/20 11:10:17;;;;;;;38.22;27.42;;;1.50;99.90;;;;;;4978446;28;89655;-30
2023/01/20 11:12:45;;;;;;;42.28;30.30;;;1.50;99.90;;;;;;4978415;28;89310;-33
2023/01/20 11:15:25;;;;;;;45.85;27.90;;;1.60;99.90;;;;;;4983530;28;88465;-32
2023/01/20 11:18:12;;;;;;;36.92;24.90;;;1.60;99.90;;;;;;4977587;28;90616;-32
2023/01/20 11:20:44;;;;;;;41.20;27.40;;;1.60;99.90;;;;;;4976700;28;90611;-30
2023/01/20 11:23:36;;;;;;;42.28;29.17;;;1.60;99.90;;;;;;4977595;28;90814;-32
2023/01/20 11:26:16;;;;;;;42.10;27.13;;;1.60;99.90;;;;;;4977366;28;89500;-33
2023/01/20 11:28:49;;;;;;;42.45;26.73;;;1.60;99.90;;;;;;4965373;28;90602;-33
2023/01/20 11:31:15;;;;;;;36.30;24.95;;;1.60;99.90;;;;;;4989350;28;90218;-31
2023/01/20 11:34:01;;;;;;;41.28;27.48;;;1.60;99.90;;;;;;4976456;28;88747;-33
2023/01/20 11:36:27;;;;;;;46.88;27.25;;;1.60;99.90;;;;;;4977173;28;89441;-31
2023/01/20 11:38:55;;;;;;;40.42;28.00;;;1.60;99.90;;;;;;4976965;28;89835;-31
2023/01/20 11:41:24;;;;;;;34.55;21.10;;;1.60;99.90;;;;;;4987745;28;90772;-31
2023/01/20 11:43:51;;;;;;;36.67;25.73;;;1.70;99.90;;;;;;4982460;28;91032;-30
2023/01/20 11:46:36;;;;;;;40.08;24.10;;;1.70;99.90;;;;;;4976601;28;89214;-30
2023/01/20 11:49:16;;;;;;;40.20;28.95;;;1.70;99.90;;;;;;4990390;28;90368;-34
2023/01/20 11:51:48;;;;;;;40.10;26.30;;;1.70;99.90;;;;;;4976710;28;89405;-33
2023/01/20 11:54:19;;;;;;;43.67;28.23;;;1.70;99.90;;;;;;4981041;28;88676;-31
2023/01/20 11:56:47;;;;;;;34.67;22.85;;;1.60;99.90;;;;;;4996917;28;91471;-31
2023/01/20 11:59:26;;;;;;;35.95;26.23;;;1.70;99.90;;;;;;4978242;28;90261;-31
2023/01/20 12:02:19;;;;;;;35.85;24.85;;;1.70;99.90;;;;;;4974261;28;89346;-31
2023/01/20 12:04:57;;;;;;;41.47;24.30;;;1.70;99.90;;;;;;4976724;28;89501;-32
2023/01/20 12:07:31;;;;;;;36.85;24.88;;;1.70;99.90;;;;;;4981254;28;89489;-30
2023/01/20 12:10:04;;;;;;;38.47;26.63;;;1.70;99.90;;;;;;4972185;28;90166;-30
2023/01/20 12:12:44;;;;;;;37.72;26.63;;;1.70;99.90;;;;;;4976263;28;90454;-31
2023/01/20 12:15:21;;;;;;;34.40;24.80;;;1.70;99.90;;;;;;4975679;28;90691;-32
2023/01/20 12:18:02;;;;;;;37.83;23.42;;;1.70;99.90;;;;;;4968011;28;88614;-32
2023/01/20 12:20:38;;;;;;;35.53;24.08;;;1.70;99.90;;;;;;4972949;28;90265;-33
2023/01/20 12:23:19;;;;;;;42.17;26.08;;;1.70;99.90;;;;;;4976617;28;89735;-31
2023/01/20 12:25:54;;;;;;;33.05;25.35;;;1.70;99.90;;;;;;4967422;28;90689;-31
2023/01/20 12:28:49;;;;;;;36.42;23.73;;;1.70;99.90;;;;;;4979751;28;88728;-32
2023/01/20 12:31:18;;;;;;;35.42;24.20;;;1.80;99.90;;;;;;4972740;28;90929;-30
2023/01/20 12:33:48;;;;;;;35.15;22.70;;;1.70;99.90;;;;;;4976369;28;89340;-32
2023/01/20 12:36:39;;;;;;;36.63;26.42;;;1.70;99.90;;;;;;4986294;28;89440;-32
2023/01/20 12:39:29;;;;;;;34.28;20.00;;;1.70;99.90;;;;;;4969162;28;90061;-31
2023/01/20 12:42:09;;;;;;;32.30;22.58;;;1.70;99.90;;;;;;4966237;28;89977;-33
2023/01/20 12:44:58;;;;;;;33.50;23.80;;;1.70;99.90;;;;;;4975558;28;89266;-30
2023/01/20 12:47:35;;;;;;;32.10;23.33;;;1.70;99.90;;;;;;4982204;28;89670;-31
2023/01/20 12:50:22;;;;;;;34.60;23.60;;;1.70;99.90;;;;;;4992470;28;89736;-31
2023/01/20 12:53:16;;;;;;;38.92;21.42;;;1.70;99.90;;;;;;4975865;28;89101;-34
2023/01/20 12:56:03;;;;;;;41.47;23.60;;;1.70;99.90;;;;;;4976472;28;88971;-30
2023/01/20 12:59:06;;;;;;;35.95;23.58;;;1.70;99.90;;;;;;4971173;28;89435;-31
2023/01/20 13:01:59;;;;;;;41.88;25.80;;;1.70;99.90;;;;;;4967784;28;88907;-32
2023/01/20 13:04:46;;;;;;;32.97;24.75;;;1.70;99.90;;;;;;4963982;28;90648;-31
2023/01/20 13:07:42;;;;;;;33.57;23.07;;;1.70;99.90;;;;;;4975309;28;90623;-31